createdAt,value
2022-11-01T00:01:28.804Z,1.67
2022-11-01T00:04:59.797Z,3.50
2022-11-01T00:08:30.671Z,5.47
2022-11-01T00:12:01.865Z,4.88
2022-11-01T00:15:32.618Z,2.58
2022-11-01T00:19:04.243Z,3.20
2022-11-01T00:22:35.263Z,1.13
2022-11-01T00:26:17.371Z,2.10
2022-11-01T00:33:11.579Z,1.85
2022-11-01T00:36:43.577Z,2.33
2022-11-01T00:40:14.570Z,2.58
2022-11-01T00:43:46.170Z,2.38
2022-11-01T00:47:17.230Z,2.83
2022-11-01T00:50:48.827Z,1.45
2022-11-01T00:54:19.756Z,2.72
2022-11-01T00:57:50.798Z,4.07
2022-11-01T01:01:21.786Z,2.08
2022-11-01T01:04:52.560Z,2.13
2022-11-01T01:08:23.636Z,1.85
2022-11-01T01:11:55.309Z,1.40
2022-11-01T01:15:26.707Z,1.45
2022-11-01T01:18:57.653Z,2.53
2022-11-01T01:22:28.510Z,3.15
2022-11-01T01:25:59.997Z,1.95
2022-11-01T01:29:31.555Z,2.17
2022-11-01T01:33:02.701Z,3.90
2022-11-01T01:36:36.488Z,4.13
2022-11-01T01:40:07.425Z,1.45
2022-11-01T01:43:51.219Z,1.50
2022-11-01T01:47:24.002Z,2.05
2022-11-01T02:42:59.881Z,4.20
2022-11-01T02:46:33.330Z,5.10
2022-11-01T02:50:20.214Z,1.38
2022-11-01T02:53:51.884Z,1.83
2022-11-01T02:57:34.405Z,4.05
2022-11-01T03:01:06.976Z,2.28
2022-11-01T03:04:38.770Z,2.88
2022-11-01T03:08:23.561Z,2.05
2022-11-01T03:25:51.764Z,3.20
2022-11-01T03:29:26.328Z,6.28
2022-11-01T03:36:49.757Z,3.50
2022-11-01T03:40:25.210Z,3.15
2022-11-01T03:43:59.557Z,2.58
2022-11-01T03:47:31.546Z,5.60
2022-11-01T03:51:15.145Z,1.30
2022-11-01T03:54:46.158Z,2.88
2022-11-01T03:58:18.088Z,9.52
2022-11-01T04:01:50.624Z,2.72
2022-11-01T04:05:21.392Z,1.52
2022-11-01T04:08:52.442Z,1.77
2022-11-01T04:12:23.678Z,2.22
2022-11-01T04:15:56.108Z,5.57
2022-11-01T04:19:27.202Z,3.83
2022-11-01T04:22:58.037Z,2.20
2022-11-01T04:26:40.889Z,2.78
2022-11-01T04:30:11.806Z,2.10
2022-11-01T04:33:45.781Z,1.88
2022-11-01T04:37:16.553Z,2.60
2022-11-01T04:40:48.266Z,2.27
2022-11-01T04:44:30.976Z,3.47
2022-11-01T04:48:13.700Z,1.75
2022-11-01T04:51:45.523Z,5.97
2022-11-01T04:55:16.539Z,5.97
2022-11-01T04:58:47.582Z,2.50
2022-11-01T05:02:18.775Z,2.38
2022-11-01T05:05:50.066Z,2.65
2022-11-01T05:09:22.213Z,1.42
2022-11-01T05:12:53.069Z,3.25
2022-11-01T05:16:24.004Z,1.65
2022-11-01T05:20:06.549Z,3.03
2022-11-01T05:23:38.547Z,4.32
2022-11-01T05:27:09.614Z,1.20
2022-11-01T05:30:41.160Z,2.67
2022-11-01T05:34:12.043Z,1.23
2022-11-01T05:37:43.019Z,1.48
2022-11-01T05:44:45.087Z,1.20
2022-11-01T05:48:20.275Z,3.78
2022-11-01T05:51:51.637Z,3.30
2022-11-01T05:55:22.746Z,3.72
2022-11-01T05:58:55.843Z,0.87
2022-11-01T06:02:26.939Z,2.50
2022-11-01T11:17:14.347Z,1.45
2022-11-01T11:21:08.791Z,2.65
2022-11-01T11:25:00.629Z,1.27
2022-11-01T11:45:01.828Z,1.33
2022-11-01T11:53:00.094Z,1.25
2022-11-01T11:56:40.158Z,0.83
2022-11-01T12:00:28.188Z,0.68
2022-11-01T12:12:55.158Z,1.73
2022-11-01T12:16:38.518Z,1.25
2022-11-01T12:20:11.814Z,1.70
2022-11-01T12:42:39.065Z,4.15
2022-11-01T12:46:48.806Z,1.83
2022-11-01T12:59:07.648Z,1.90
2022-11-01T13:03:07.438Z,0.75
2022-11-01T13:16:25.583Z,0.38
2022-11-01T13:32:31.615Z,1.02
2022-11-01T13:36:37.598Z,1.23
2022-11-01T13:56:22.014Z,1.15
2022-11-01T14:00:14.156Z,0.80
2022-11-01T19:40:34.161Z,8.20
2022-11-01T19:44:16.321Z,4.88
2022-11-01T20:10:36.375Z,5.82
2022-11-01T20:17:29.454Z,5.35
2022-11-01T20:21:00.474Z,5.30
2022-11-01T20:24:31.543Z,6.67
2022-11-01T20:28:02.724Z,4.50
2022-11-01T20:31:34.617Z,4.05
2022-11-01T20:35:05.512Z,4.30
2022-11-01T20:38:36.496Z,8.20
2022-11-01T20:42:08.393Z,6.47
2022-11-01T20:45:39.526Z,6.25
2022-11-01T20:49:10.608Z,3.53
2022-11-01T20:52:41.457Z,5.05
2022-11-01T20:56:12.717Z,4.82
2022-11-01T20:59:43.503Z,9.80
2022-11-01T21:03:26.373Z,5.88
2022-11-01T21:06:59.607Z,7.20
2022-11-01T21:11:16.369Z,9.57
2022-11-01T21:15:01.883Z,7.70
2022-11-01T21:37:53.721Z,6.07
2022-11-01T21:41:52.924Z,8.85
2022-11-01T21:45:58.873Z,8.00
2022-11-01T23:17:18.567Z,24.35
